sensor_id;sensor_type;location;lat;lon;timestamp;pressure;altitude;pressure_sealevel;temperature;humidity
76424;BME280;65257;52.104;4.268;2023-05-10T00:01:20;100824.75;;;10.93;100.00
76424;BME280;65257;52.104;4.268;2023-05-10T00:03:49;100829.25;;;11.00;100.00
76424;BME280;65257;52.104;4.268;2023-05-10T00:06:14;100826.41;;;10.91;100.00
76424;BME280;65257;52.104;4.268;2023-05-10T00:08:40;100819.75;;;10.96;100.00
76424;BME280;65257;52.104;4.268;2023-05-10T00:11:05;100814.81;;;11.02;100.00
76424;BME280;65257;52.104;4.268;2023-05-10T00:13:33;100810.13;;;10.89;100.00
76424;BME280;65257;52.104;4.268;2023-05-10T00:16:04;100808.91;;;10.78;100.00
76424;BME280;65257;52.104;4.268;2023-05-10T00:18:30;100813.00;;;10.73;100.00
76424;BME280;65257;52.104;4.268;2023-05-10T00:20:55;100823.06;;;10.93;100.00
76424;BME280;65257;52.104;4.268;2023-05-10T00:23:23;100819.53;;;10.90;100.00
76424;BME280;65257;52.104;4.268;2023-05-10T00:25:48;100822.72;;;10.83;100.00
76424;BME280;65257;52.104;4.268;2023-05-10T00:28:14;100814.41;;;10.90;100.00
76424;BME280;65257;52.104;4.268;2023-05-10T00:30:40;100809.00;;;10.81;100.00
76424;BME280;65257;52.104;4.268;2023-05-10T00:33:06;100811.03;;;10.91;100.00
76424;BME280;65257;52.104;4.268;2023-05-10T00:35:34;100815.53;;;10.98;100.00
76424;BME280;65257;52.104;4.268;2023-05-10T00:38:02;100823.44;;;11.04;100.00
76424;BME280;65257;52.104;4.268;2023-05-10T00:40:29;100819.94;;;11.02;100.00
76424;BME280;65257;52.104;4.268;2023-05-10T00:42:56;100809.63;;;10.99;100.00
76424;BME280;65257;52.104;4.268;2023-05-10T00:45:22;100834.72;;;11.10;100.00
76424;BME280;65257;52.104;4.268;2023-05-10T00:47:48;100829.81;;;11.16;100.00
76424;BME280;65257;52.104;4.268;2023-05-10T00:50:14;100832.97;;;11.09;100.00
76424;BME280;65257;52.104;4.268;2023-05-10T00:52:49;100828.34;;;10.98;100.00
76424;BME280;65257;52.104;4.268;2023-05-10T00:55:15;100829.25;;;11.00;100.00
76424;BME280;65257;52.104;4.268;2023-05-10T00:57:41;100830.13;;;11.00;100.00
76424;BME280;65257;52.104;4.268;2023-05-10T01:00:10;100830.69;;;10.92;100.00
76424;BME280;65257;52.104;4.268;2023-05-10T01:02:37;100830.91;;;10.98;100.00
76424;BME280;65257;52.104;4.268;2023-05-10T01:05:06;100839.59;;;11.03;100.00
76424;BME280;65257;52.104;4.268;2023-05-10T01:07:33;100842.28;;;11.06;100.00
76424;BME280;65257;52.104;4.268;2023-05-10T01:10:09;100841.25;;;11.01;100.00
76424;BME280;65257;52.104;4.268;2023-05-10T01:12:35;100855.78;;;11.02;100.00
76424;BME280;65257;52.104;4.268;2023-05-10T01:15:08;100849.56;;;10.94;100.00
76424;BME280;65257;52.104;4.268;2023-05-10T01:17:37;100858.28;;;11.00;100.00
76424;BME280;65257;52.104;4.268;2023-05-10T01:20:11;100863.81;;;11.12;100.00
76424;BME280;65257;52.104;4.268;2023-05-10T01:36:40;100879.44;;;11.45;100.00
76424;BME280;65257;52.104;4.268;2023-05-10T01:39:32;100871.88;;;11.50;100.00
76424;BME280;65257;52.104;4.268;2023-05-10T01:42:21;100874.56;;;11.54;100.00
76424;BME280;65257;52.104;4.268;2023-05-10T01:45:02;100884.94;;;11.57;100.00
76424;BME280;65257;52.104;4.268;2023-05-10T01:47:42;100884.03;;;11.55;100.00
76424;BME280;65257;52.104;4.268;2023-05-10T01:50:12;100881.47;;;11.55;100.00
76424;BME280;65257;52.104;4.268;2023-05-10T01:52:50;100884.94;;;11.57;100.00
76424;BME280;65257;52.104;4.268;2023-05-10T01:55:22;100888.31;;;11.56;100.00
76424;BME280;65257;52.104;4.268;2023-05-10T01:57:54;100890.06;;;11.57;100.00
76424;BME280;65257;52.104;4.268;2023-05-10T02:00:28;100888.31;;;11.56;100.00
76424;BME280;65257;52.104;4.268;2023-05-10T02:03:06;100887.59;;;11.60;100.00
76424;BME280;65257;52.104;4.268;2023-05-10T02:05:34;100890.22;;;11.63;100.00
76424;BME280;65257;52.104;4.268;2023-05-10T02:08:08;100905.31;;;11.54;100.00
76424;BME280;65257;52.104;4.268;2023-05-10T02:10:35;100901.97;;;11.55;100.00
76424;BME280;65257;52.104;4.268;2023-05-10T02:13:05;100906.84;;;11.48;100.00
76424;BME280;65257;52.104;4.268;2023-05-10T02:15:46;100900.19;;;11.54;100.00
76424;BME280;65257;52.104;4.268;2023-05-10T02:18:17;100906.66;;;11.43;100.00
76424;BME280;65257;52.104;4.268;2023-05-10T02:20:46;100905.97;;;11.47;100.00
76424;BME280;65257;52.104;4.268;2023-05-10T02:23:12;100899.81;;;11.42;100.00
76424;BME280;65257;52.104;4.268;2023-05-10T02:25:39;100911.22;;;11.52;100.00
76424;BME280;65257;52.104;4.268;2023-05-10T02:28:08;100900.00;;;11.48;100.00
76424;BME280;65257;52.104;4.268;2023-05-10T02:30:36;100910.06;;;11.42;100.00
76424;BME280;65257;52.104;4.268;2023-05-10T02:33:05;100906.56;;;11.40;100.00
76424;BME280;65257;52.104;4.268;2023-05-10T02:35:32;100904.84;;;11.39;100.00
76424;BME280;65257;52.104;4.268;2023-05-10T02:37:59;100910.97;;;11.44;100.00
76424;BME280;65257;52.104;4.268;2023-05-10T02:40:35;100907.75;;;11.50;100.00
76424;BME280;65257;52.104;4.268;2023-05-10T02:43:06;100912.78;;;11.47;100.00
76424;BME280;65257;52.104;4.268;2023-05-10T02:45:35;100917.00;;;11.46;100.00
76424;BME280;65257;52.104;4.268;2023-05-10T02:48:01;100914.34;;;11.43;100.00
76424;BME280;65257;52.104;4.268;2023-05-10T02:50:28;100923.69;;;11.41;100.00
76424;BME280;65257;52.104;4.268;2023-05-10T02:52:56;100917.69;;;11.41;100.00
76424;BME280;65257;52.104;4.268;2023-05-10T02:55:31;100921.50;;;11.53;100.00
76424;BME280;65257;52.104;4.268;2023-05-10T02:58:03;100920.50;;;11.48;100.00
76424;BME280;65257;52.104;4.268;2023-05-10T03:00:29;100921.13;;;11.41;100.00
76424;BME280;65257;52.104;4.268;2023-05-10T03:02:54;100922.78;;;11.39;100.00
76424;BME280;65257;52.104;4.268;2023-05-10T03:05:23;100917.75;;;11.42;100.00
76424;BME280;65257;52.104;4.268;2023-05-10T03:07:48;100924.69;;;11.46;100.00
76424;BME280;65257;52.104;4.268;2023-05-10T03:10:14;100925.44;;;11.42;100.00
76424;BME280;65257;52.104;4.268;2023-05-10T03:20:35;100926.88;;;11.34;100.00
76424;BME280;65257;52.104;4.268;2023-05-10T03:23:24;100935.34;;;11.33;100.00
76424;BME280;65257;52.104;4.268;2023-05-10T03:25:53;100936.28;;;11.35;100.00
76424;BME280;65257;52.104;4.268;2023-05-10T03:28:20;100933.81;;;11.38;100.00
76424;BME280;65257;52.104;4.268;2023-05-10T03:30:46;100935.69;;;11.42;100.00
76424;BME280;65257;52.104;4.268;2023-05-10T03:33:11;100939.06;;;11.41;100.00
76424;BME280;65257;52.104;4.268;2023-05-10T03:35:38;100936.59;;;11.44;100.00
76424;BME280;65257;52.104;4.268;2023-05-10T03:38:06;100932.78;;;11.58;100.00
76424;BME280;65257;52.104;4.268;2023-05-10T03:40:35;100935.88;;;11.48;100.00
76424;BME280;65257;52.104;4.268;2023-05-10T03:43:00;100947.72;;;11.19;100.00
76424;BME280;65257;52.104;4.268;2023-05-10T03:45:29;100946.50;;;11.10;100.00
76424;BME280;65257;52.104;4.268;2023-05-10T03:47:58;100952.50;;;11.10;100.00
76424;BME280;65257;52.104;4.268;2023-05-10T03:50:24;100951.75;;;11.13;100.00
76424;BME280;65257;52.104;4.268;2023-05-10T03:52:50;100948.78;;;11.01;100.00
76424;BME280;65257;52.104;4.268;2023-05-10T03:55:18;100952.00;;;10.95;100.00
76424;BME280;65257;52.104;4.268;2023-05-10T03:57:46;100957.34;;;11.01;100.00
76424;BME280;65257;52.104;4.268;2023-05-10T04:00:14;100954.59;;;10.97;100.00
76424;BME280;65257;52.104;4.268;2023-05-10T04:02:43;100952.59;;;10.88;100.00
76424;BME280;65257;52.104;4.268;2023-05-10T04:05:12;100959.63;;;10.94;100.00
76424;BME280;65257;52.104;4.268;2023-05-10T04:07:37;100962.19;;;10.94;100.00
76424;BME280;65257;52.104;4.268;2023-05-10T04:10:25;100962.22;;;10.95;100.00
76424;BME280;65257;52.104;4.268;2023-05-10T04:12:51;100961.03;;;10.86;100.00
76424;BME280;65257;52.104;4.268;2023-05-10T04:15:22;100960.44;;;10.93;100.00
76424;BME280;65257;52.104;4.268;2023-05-10T04:17:48;100969.63;;;10.88;100.00
76424;BME280;65257;52.104;4.268;2023-05-10T04:20:14;100965.22;;;10.84;100.00
76424;BME280;65257;52.104;4.268;2023-05-10T04:22:41;100965.16;;;10.82;100.00
76424;BME280;65257;52.104;4.268;2023-05-10T04:25:08;100965.28;;;10.85;100.00
76424;BME280;65257;52.104;4.268;2023-05-10T04:27:36;100966.34;;;10.92;100.00
76424;BME280;65257;52.104;4.268;2023-05-10T04:30:03;100974.53;;;10.82;100.00
76424;BME280;65257;52.104;4.268;2023-05-10T04:32:31;100967.75;;;10.84;100.00
76424;BME280;65257;52.104;4.268;2023-05-10T04:34:56;100968.59;;;10.83;100.00
76424;BME280;65257;52.104;4.268;2023-05-10T04:37:22;100972.81;;;10.81;100.00
76424;BME280;65257;52.104;4.268;2023-05-10T04:39:51;100969.41;;;10.82;100.00
76424;BME280;65257;52.104;4.268;2023-05-10T04:42:16;100984.56;;;10.76;100.00
76424;BME280;65257;52.104;4.268;2023-05-10T04:44:42;100980.41;;;10.79;100.00
76424;BME280;65257;52.104;4.268;2023-05-10T04:47:13;100979.09;;;10.66;100.00
76424;BME280;65257;52.104;4.268;2023-05-10T04:49:38;100982.81;;;10.75;100.00
76424;BME280;65257;52.104;4.268;2023-05-10T04:52:10;100981.06;;;10.74;100.00
76424;BME280;65257;52.104;4.268;2023-05-10T04:54:40;100982.69;;;10.72;100.00
76424;BME280;65257;52.104;4.268;2023-05-10T04:57:06;100985.41;;;10.76;100.00
76424;BME280;65257;52.104;4.268;2023-05-10T04:59:31;100985.41;;;10.76;100.00
76424;BME280;65257;52.104;4.268;2023-05-10T05:01:57;100985.75;;;10.85;100.00
76424;BME280;65257;52.104;4.268;2023-05-10T05:04:25;100987.81;;;10.95;100.00
76424;BME280;65257;52.104;4.268;2023-05-10T05:06:54;100997.91;;;10.91;100.00
76424;BME280;65257;52.104;4.268;2023-05-10T05:09:20;100993.81;;;10.96;100.00
76424;BME280;65257;52.104;4.268;2023-05-10T05:11:46;100990.53;;;11.00;100.00
76424;BME280;65257;52.104;4.268;2023-05-10T05:14:12;100993.94;;;10.99;100.00
76424;BME280;65257;52.104;4.268;2023-05-10T05:16:38;100998.22;;;11.00;100.00
76424;BME280;65257;52.104;4.268;2023-05-10T05:19:03;100995.91;;;11.06;100.00
76424;BME280;65257;52.104;4.268;2023-05-10T05:21:43;100998.66;;;11.12;100.00
76424;BME280;65257;52.104;4.268;2023-05-10T05:24:09;100996.78;;;11.06;100.00
76424;BME280;65257;52.104;4.268;2023-05-10T05:26:35;101006.44;;;11.15;100.00
76424;BME280;65257;52.104;4.268;2023-05-10T05:29:04;101003.50;;;11.28;100.00
76424;BME280;65257;52.104;4.268;2023-05-10T05:31:30;101009.53;;;11.30;100.00
76424;BME280;65257;52.104;4.268;2023-05-10T05:34:01;101012.09;;;11.30;100.00
76424;BME280;65257;52.104;4.268;2023-05-10T05:36:36;101006.94;;;11.28;100.00
76424;BME280;65257;52.104;4.268;2023-05-10T05:39:07;101011.56;;;11.39;100.00
76424;BME280;65257;52.104;4.268;2023-05-10T05:41:36;101019.72;;;11.52;100.00
76424;BME280;65257;52.104;4.268;2023-05-10T05:44:05;101024.84;;;11.52;100.00
76424;BME280;65257;52.104;4.268;2023-05-10T05:46:30;101021.88;;;11.65;100.00
76424;BME280;65257;52.104;4.268;2023-05-10T05:48:56;101024.06;;;11.78;100.00
76424;BME280;65257;52.104;4.268;2023-05-10T05:51:25;101020.94;;;11.63;100.00
76424;BME280;65257;52.104;4.268;2023-05-10T05:53:50;101028.09;;;11.72;100.00
76424;BME280;65257;52.104;4.268;2023-05-10T05:56:16;101032.28;;;11.68;100.00
76424;BME280;65257;52.104;4.268;2023-05-10T05:58:42;101030.47;;;11.67;100.00
76424;BME280;65257;52.104;4.268;2023-05-10T06:01:14;101023.31;;;11.57;100.00
76424;BME280;65257;52.104;4.268;2023-05-10T06:04:07;101032.44;;;11.74;100.00
76424;BME280;65257;52.104;4.268;2023-05-10T06:06:37;101039.53;;;11.81;100.00
76424;BME280;65257;52.104;4.268;2023-05-10T06:09:02;101033.84;;;11.90;100.00
76424;BME280;65257;52.104;4.268;2023-05-10T06:11:28;101043.94;;;11.85;100.00
76424;BME280;65257;52.104;4.268;2023-05-10T06:14:00;101039.84;;;11.90;100.00
76424;BME280;65257;52.104;4.268;2023-05-10T06:16:30;101044.84;;;11.87;100.00
76424;BME280;65257;52.104;4.268;2023-05-10T06:18:55;101046.41;;;11.82;100.00
76424;BME280;65257;52.104;4.268;2023-05-10T06:21:21;101032.84;;;11.86;100.00
76424;BME280;65257;52.104;4.268;2023-05-10T06:23:47;101034.81;;;11.93;100.00
76424;BME280;65257;52.104;4.268;2023-05-10T06:26:13;101037.31;;;11.92;100.00
76424;BME280;65257;52.104;4.268;2023-05-10T06:28:42;101040.84;;;11.96;100.00
76424;BME280;65257;52.104;4.268;2023-05-10T06:31:13;101041.44;;;12.14;100.00
76424;BME280;65257;52.104;4.268;2023-05-10T06:33:39;101044.19;;;12.20;100.00
76424;BME280;65257;52.104;4.268;2023-05-10T06:36:04;101044.50;;;12.29;100.00
76424;BME280;65257;52.104;4.268;2023-05-10T06:38:30;101047.03;;;12.27;100.00
76424;BME280;65257;52.104;4.268;2023-05-10T06:40:56;101048.41;;;12.18;100.00
76424;BME280;65257;52.104;4.268;2023-05-10T06:43:25;101049.03;;;12.11;100.00
76424;BME280;65257;52.104;4.268;2023-05-10T06:45:54;101044.19;;;12.20;100.00
76424;BME280;65257;52.104;4.268;2023-05-10T06:48:19;101049.94;;;12.13;100.00
76424;BME280;65257;52.104;4.268;2023-05-10T06:50:44;101052.63;;;12.16;100.00
76424;BME280;65257;52.104;4.268;2023-05-10T06:53:10;101056.50;;;12.30;100.00
76424;BME280;65257;52.104;4.268;2023-05-10T06:55:39;101056.00;;;12.41;100.00
76424;BME280;65257;52.104;4.268;2023-05-10T06:58:04;101060.38;;;12.44;100.00
76424;BME280;65257;52.104;4.268;2023-05-10T07:00:31;101062.13;;;12.45;100.00
76424;BME280;65257;52.104;4.268;2023-05-10T07:02:59;101059.00;;;12.55;100.00
76424;BME280;65257;52.104;4.268;2023-05-10T07:05:24;101060.66;;;12.53;100.00
76424;BME280;65257;52.104;4.268;2023-05-10T07:07:54;101071.72;;;12.50;100.00
76424;BME280;65257;52.104;4.268;2023-05-10T07:10:20;101068.63;;;12.62;100.00
76424;BME280;65257;52.104;4.268;2023-05-10T07:12:45;101072.88;;;12.62;100.00
76424;BME280;65257;52.104;4.268;2023-05-10T07:15:12;101077.59;;;12.48;100.00
76424;BME280;65257;52.104;4.268;2023-05-10T07:17:38;101083.00;;;12.57;100.00
76424;BME280;65257;52.104;4.268;2023-05-10T07:20:08;101078.84;;;12.61;100.00
76424;BME280;65257;52.104;4.268;2023-05-10T07:22:41;101078.16;;;12.66;100.00
76424;BME280;65257;52.104;4.268;2023-05-10T07:25:09;101085.50;;;12.82;100.00
76424;BME280;65257;52.104;4.268;2023-05-10T07:27:35;101086.38;;;12.83;100.00
76424;BME280;65257;52.104;4.268;2023-05-10T07:30:00;101093.50;;;12.91;100.00
76424;BME280;65257;52.104;4.268;2023-05-10T07:32:26;101090.03;;;12.91;100.00
76424;BME280;65257;52.104;4.268;2023-05-10T07:34:52;101087.78;;;13.01;100.00
76424;BME280;65257;52.104;4.268;2023-05-10T07:37:17;101092.72;;;12.95;100.00
76424;BME280;65257;52.104;4.268;2023-05-10T07:39:46;101090.44;;;13.04;100.00
76424;BME280;65257;52.104;4.268;2023-05-10T07:42:12;101094.56;;;12.99;100.00
76424;BME280;65257;52.104;4.268;2023-05-10T07:44:37;101105.81;;;13.03;100.00
76424;BME280;65257;52.104;4.268;2023-05-10T07:47:03;101100.25;;;13.17;100.00
76424;BME280;65257;52.104;4.268;2023-05-10T07:49:28;101099.66;;;13.26;100.00
76424;BME280;65257;52.104;4.268;2023-05-10T07:51:54;101097.69;;;13.17;100.00
76424;BME280;65257;52.104;4.268;2023-05-10T07:54:19;101108.25;;;13.27;100.00
76424;BME280;65257;52.104;4.268;2023-05-10T07:56:45;101108.97;;;13.23;100.00
76424;BME280;65257;52.104;4.268;2023-05-10T07:59:32;101106.38;;;13.21;100.00
76424;BME280;65257;52.104;4.268;2023-05-10T08:01:58;101108.47;;;13.34;100.00
76424;BME280;65257;52.104;4.268;2023-05-10T08:04:23;101111.91;;;13.35;100.00
76424;BME280;65257;52.104;4.268;2023-05-10T08:06:49;101105.53;;;13.52;100.00
76424;BME280;65257;52.104;4.268;2023-05-10T08:09:21;101114.56;;;13.38;100.00
76424;BME280;65257;52.104;4.268;2023-05-10T08:11:52;101118.84;;;13.37;100.00
76424;BME280;65257;52.104;4.268;2023-05-10T08:14:17;101124.84;;;13.38;100.00
76424;BME280;65257;52.104;4.268;2023-05-10T08:16:43;101127.03;;;13.26;100.00
76424;BME280;65257;52.104;4.268;2023-05-10T08:19:08;101122.66;;;13.22;100.00
76424;BME280;65257;52.104;4.268;2023-05-10T08:21:43;101136.22;;;13.17;100.00
76424;BME280;65257;52.104;4.268;2023-05-10T08:24:11;101125.34;;;13.26;100.00
76424;BME280;65257;52.104;4.268;2023-05-10T08:26:53;101128.81;;;13.27;100.00
76424;BME280;65257;52.104;4.268;2023-05-10T08:29:19;101130.63;;;13.31;100.00
76424;BME280;65257;52.104;4.268;2023-05-10T08:31:45;101133.19;;;13.31;100.00
76424;BME280;65257;52.104;4.268;2023-05-10T08:34:10;101134.66;;;13.23;100.00
76424;BME280;65257;52.104;4.268;2023-05-10T08:36:36;101140.00;;;13.29;100.00
76424;BME280;65257;52.104;4.268;2023-05-10T08:39:01;101142.66;;;13.32;100.00
76424;BME280;65257;52.104;4.268;2023-05-10T08:41:28;101145.31;;;13.35;100.00
76424;BME280;65257;52.104;4.268;2023-05-10T08:43:55;101147.72;;;13.30;100.00
76424;BME280;65257;52.104;4.268;2023-05-10T08:46:22;101150.63;;;13.41;100.00
76424;BME280;65257;52.104;4.268;2023-05-10T08:48:53;101160.69;;;13.63;100.00
76424;BME280;65257;52.104;4.268;2023-05-10T08:51:23;101166.84;;;13.68;100.00
76424;BME280;65257;52.104;4.268;2023-05-10T08:53:54;101168.63;;;13.70;100.00
76424;BME280;65257;52.104;4.268;2023-05-10T08:56:24;101162.19;;;13.86;100.00
76424;BME280;65257;52.104;4.268;2023-05-10T08:58:50;101169.47;;;14.02;100.00
76424;BME280;65257;52.104;4.268;2023-05-10T09:01:18;101171.38;;;14.09;100.00
76424;BME280;65257;52.104;4.268;2023-05-10T09:03:46;101163.59;;;14.08;100.00
76424;BME280;65257;52.104;4.268;2023-05-10T09:06:16;101179.09;;;13.78;100.00
76424;BME280;65257;52.104;4.268;2023-05-10T09:08:45;101177.34;;;13.77;100.00
76424;BME280;65257;52.104;4.268;2023-05-10T09:11:11;101180.78;;;13.76;100.00
76424;BME280;65257;52.104;4.268;2023-05-10T09:13:37;101185.75;;;13.70;100.00
76424;BME280;65257;52.104;4.268;2023-05-10T09:16:04;101191.31;;;13.55;100.00
76424;BME280;65257;52.104;4.268;2023-05-10T09:18:32;101191.84;;;13.44;100.00
76424;BME280;65257;52.104;4.268;2023-05-10T09:21:06;101192.91;;;13.50;100.00
76424;BME280;65257;52.104;4.268;2023-05-10T09:23:31;101198.03;;;13.50;100.00
76424;BME280;65257;52.104;4.268;2023-05-10T09:26:04;101202.19;;;13.45;100.00
76424;BME280;65257;52.104;4.268;2023-05-10T09:28:54;101199.41;;;13.39;100.00
76424;BME280;65257;52.104;4.268;2023-05-10T09:31:21;101202.13;;;13.44;100.00
76424;BME280;65257;52.104;4.268;2023-05-10T09:33:48;101204.53;;;13.38;100.00
76424;BME280;65257;52.104;4.268;2023-05-10T09:36:14;101201.97;;;13.38;100.00
76424;BME280;65257;52.104;4.268;2023-05-10T09:38:50;101203.69;;;13.39;100.00
76424;BME280;65257;52.104;4.268;2023-05-10T09:41:23;101202.13;;;13.44;100.00
76424;BME280;65257;52.104;4.268;2023-05-10T09:43:55;101208.91;;;13.42;100.00
76424;BME280;65257;52.104;4.268;2023-05-10T09:46:24;101209.66;;;13.38;100.00
76424;BME280;65257;52.104;4.268;2023-05-10T09:48:50;101220.00;;;13.41;100.00
76424;BME280;65257;52.104;4.268;2023-05-10T09:51:25;101214.28;;;13.21;100.00
76424;BME280;65257;52.104;4.268;2023-05-10T09:54:09;101219.00;;;13.36;100.00
76424;BME280;65257;52.104;4.268;2023-05-10T09:56:35;101213.41;;;13.21;100.00
76424;BME280;65257;52.104;4.268;2023-05-10T09:59:03;101215.16;;;13.22;100.00
76424;BME280;65257;52.104;4.268;2023-05-10T10:01:29;101222.56;;;13.12;100.00
76424;BME280;65257;52.104;4.268;2023-05-10T10:03:54;101216.44;;;13.07;100.00
76424;BME280;65257;52.104;4.268;2023-05-10T10:06:23;101214.75;;;13.08;100.00
76424;BME280;65257;52.104;4.268;2023-05-10T10:08:50;101218.78;;;13.01;100.00
76424;BME280;65257;52.104;4.268;2023-05-10T10:11:15;101222.03;;;12.96;100.00
76424;BME280;65257;52.104;4.268;2023-05-10T10:13:41;101220.91;;;12.88;100.00
76424;BME280;65257;52.104;4.268;2023-05-10T10:16:08;101223.38;;;12.85;100.00
76424;BME280;65257;52.104;4.268;2023-05-10T10:18:36;101223.34;;;12.83;100.00
76424;BME280;65257;52.104;4.268;2023-05-10T10:21:13;101232.72;;;12.81;100.00
76424;BME280;65257;52.104;4.268;2023-05-10T10:23:44;101227.75;;;12.87;100.00
76424;BME280;65257;52.104;4.268;2023-05-10T10:26:15;101234.44;;;12.82;100.00
76424;BME280;65257;52.104;4.268;2023-05-10T10:31:39;101232.84;;;12.86;100.00
76424;BME280;65257;52.104;4.268;2023-05-10T10:34:28;101240.06;;;12.97;100.00
76424;BME280;65257;52.104;4.268;2023-05-10T10:36:56;101238.13;;;12.90;100.00
76424;BME280;65257;52.104;4.268;2023-05-10T10:39:24;101241.06;;;13.02;100.00
76424;BME280;65257;52.104;4.268;2023-05-10T10:41:53;101236.47;;;12.92;100.00
76424;BME280;65257;52.104;4.268;2023-05-10T10:52:42;101248.22;;;13.11;100.00
76424;BME280;65257;52.104;4.268;2023-05-10T10:55:19;101248.22;;;13.11;100.00
76424;BME280;65257;52.104;4.268;2023-05-10T10:57:56;101248.34;;;13.14;100.00
76424;BME280;65257;52.104;4.268;2023-05-10T11:00:50;101247.84;;;13.00;100.00
76424;BME280;65257;52.104;4.268;2023-05-10T11:03:18;101252.91;;;12.97;100.00
76424;BME280;65257;52.104;4.268;2023-05-10T11:05:57;101248.78;;;13.02;100.00
76424;BME280;65257;52.104;4.268;2023-05-10T11:08:34;101247.34;;;13.10;100.00
76424;BME280;65257;52.104;4.268;2023-05-10T11:11:17;101249.94;;;13.10;100.00
76424;BME280;65257;52.104;4.268;2023-05-10T11:13:44;101252.41;;;13.07;100.00
76424;BME280;65257;52.104;4.268;2023-05-10T11:16:18;101246.53;;;13.11;100.00
76424;BME280;65257;52.104;4.268;2023-05-10T11:19:06;101252.94;;;13.24;100.00
76424;BME280;65257;52.104;4.268;2023-05-10T11:21:43;101252.03;;;13.22;100.00
76424;BME280;65257;52.104;4.268;2023-05-10T11:24:12;101249.69;;;13.30;100.00
76424;BME280;65257;52.104;4.268;2023-05-10T11:26:38;101251.50;;;13.34;100.00
76424;BME280;65257;52.104;4.268;2023-05-10T11:29:04;101249.94;;;13.39;100.00
76424;BME280;65257;52.104;4.268;2023-05-10T11:31:30;101253.03;;;13.55;100.00
76424;BME280;65257;52.104;4.268;2023-05-10T11:34:00;101258.72;;;13.73;100.00
76424;BME280;65257;52.104;4.268;2023-05-10T11:36:32;101264.34;;;13.62;100.00
76424;BME280;65257;52.104;4.268;2023-05-10T11:38:58;101260.44;;;13.74;100.00
76424;BME280;65257;52.104;4.268;2023-05-10T11:41:28;101262.88;;;13.70;100.00
76424;BME280;65257;52.104;4.268;2023-05-10T11:43:54;101254.81;;;13.58;100.00
76424;BME280;65257;52.104;4.268;2023-05-10T11:46:22;101256.00;;;13.69;100.00
76424;BME280;65257;52.104;4.268;2023-05-10T11:48:58;101259.50;;;13.43;100.00
76424;BME280;65257;52.104;4.268;2023-05-10T11:51:33;101257.09;;;13.49;100.00
76424;BME280;65257;52.104;4.268;2023-05-10T11:53:59;101261.22;;;13.72;100.00
76424;BME280;65257;52.104;4.268;2023-05-10T11:56:25;101263.41;;;13.88;100.00
76424;BME280;65257;52.104;4.268;2023-05-10T11:59:00;101266.03;;;13.90;100.00
76424;BME280;65257;52.104;4.268;2023-05-10T12:01:28;101261.56;;;13.84;100.00
76424;BME280;65257;52.104;4.268;2023-05-10T12:03:56;101268.56;;;13.88;100.00
76424;BME280;65257;52.104;4.268;2023-05-10T12:06:28;101271.78;;;13.81;100.00
76424;BME280;65257;52.104;4.268;2023-05-10T12:08:54;101271.78;;;14.11;100.00
76424;BME280;65257;52.104;4.268;2023-05-10T12:11:20;101273.78;;;13.91;100.00
76424;BME280;65257;52.104;4.268;2023-05-10T12:13:53;101261.09;;;13.97;100.00
76424;BME280;65257;52.104;4.268;2023-05-10T12:16:23;101271.84;;;13.84;100.00
76424;BME280;65257;52.104;4.268;2023-05-10T12:18:56;101275.00;;;13.74;100.00
76424;BME280;65257;52.104;4.268;2023-05-10T12:21:40;101278.94;;;13.91;100.00
76424;BME280;65257;52.104;4.268;2023-05-10T12:24:09;101281.19;;;14.10;100.00
76424;BME280;65257;52.104;4.268;2023-05-10T12:26:38;101282.53;;;13.96;100.00
76424;BME280;65257;52.104;4.268;2023-05-10T12:29:15;101277.72;;;13.78;100.00
76424;BME280;65257;52.104;4.268;2023-05-10T12:31:52;101284.22;;;13.66;100.00
76424;BME280;65257;52.104;4.268;2023-05-10T12:34:25;101282.41;;;13.63;100.00
76424;BME280;65257;52.104;4.268;2023-05-10T12:37:06;101282.72;;;13.74;100.00
76424;BME280;65257;52.104;4.268;2023-05-10T12:39:40;101287.22;;;13.81;100.00
76424;BME280;65257;52.104;4.268;2023-05-10T12:42:06;101287.78;;;13.71;100.00
76424;BME280;65257;52.104;4.268;2023-05-10T12:44:35;101289.81;;;13.53;100.00
76424;BME280;65257;52.104;4.268;2023-05-10T12:47:00;101289.97;;;13.59;100.00
76424;BME280;65257;52.104;4.268;2023-05-10T12:49:32;101289.97;;;13.59;100.00
76424;BME280;65257;52.104;4.268;2023-05-10T12:51:57;101302.94;;;13.62;100.00
76424;BME280;65257;52.104;4.268;2023-05-10T12:54:23;101300.44;;;13.65;100.00
76424;BME280;65257;52.104;4.268;2023-05-10T12:56:49;101297.47;;;13.51;100.00
76424;BME280;65257;52.104;4.268;2023-05-10T12:59:14;101302.22;;;13.39;100.00
76424;BME280;65257;52.104;4.268;2023-05-10T13:01:40;101304.84;;;13.41;100.00
76424;BME280;65257;52.104;4.268;2023-05-10T13:04:08;101310.19;;;13.47;100.00
76424;BME280;65257;52.104;4.268;2023-05-10T13:06:34;101308.81;;;13.58;100.00
76424;BME280;65257;52.104;4.268;2023-05-10T13:09:00;101310.63;;;13.62;100.00
76424;BME280;65257;52.104;4.268;2023-05-10T13:11:26;101310.63;;;13.62;100.00
76424;BME280;65257;52.104;4.268;2023-05-10T13:13:54;101313.09;;;13.87;100.00
76424;BME280;65257;52.104;4.268;2023-05-10T13:16:28;101310.25;;;14.06;100.00
76424;BME280;65257;52.104;4.268;2023-05-10T13:18:56;101303.78;;;14.20;100.00
76424;BME280;65257;52.104;4.268;2023-05-10T13:21:22;101303.88;;;14.23;100.00
76424;BME280;65257;52.104;4.268;2023-05-10T13:23:50;101307.06;;;14.45;100.00